Time;durP1;ratioP1;P1;durP2;ratioP2;P2;SDS_P1;SDS_P2;PMS_P1;PMS_P2;Temp;Humidity;BMP_temperature;BMP_pressure;BME280_temperature;BME280_humidity;BME280_pressure;Samples;Min_cycle;Max_cycle;Signal;HPM_P1;HPM_P2
2021/07/01 00:02:25;;;;;;;0.75;0.75;;;;;;;;;;5010892;28;20041;-68
2021/07/01 00:04:50;;;;;;;0.68;0.68;;;;;;;;;;5011200;28;20057;-68
2021/07/01 00:07:15;;;;;;;0.85;0.70;;;;;;;;;;4995722;28;20014;-68
2021/07/01 00:09:40;;;;;;;0.70;0.70;;;;;;;;;;5010739;28;20034;-69
2021/07/01 00:12:06;;;;;;;1.00;0.88;;;;;;;;;;5010967;28;20046;-68
2021/07/01 00:14:31;;;;;;;1.83;0.80;;;;;;;;;;5010794;28;20026;-68
2021/07/01 00:16:56;;;;;;;1.38;0.70;;;;;;;;;;5011266;28;20059;-68
2021/07/01 00:19:22;;;;;;;3.40;0.88;;;;;;;;;;5013115;28;20103;-68
2021/07/01 00:21:47;;;;;;;2.67;0.90;;;;;;;;;;5011072;28;20124;-68
2021/07/01 00:24:13;;;;;;;1.27;0.70;;;;;;;;;;5011018;28;20112;-69
2021/07/01 00:26:38;;;;;;;1.60;1.10;;;;;;;;;;5009262;28;20184;-68
2021/07/01 00:29:04;;;;;;;0.70;0.70;;;;;;;;;;5010729;28;20029;-67
2021/07/01 00:31:30;;;;;;;0.90;0.80;;;;;;;;;;5012818;28;20045;-67
2021/07/01 00:33:56;;;;;;;7.05;1.20;;;;;;;;;;5010340;28;20098;-67
2021/07/01 00:36:21;;;;;;;0.70;0.70;;;;;;;;;;5010913;28;20038;-68
2021/07/01 00:38:49;;;;;;;1.15;1.05;;;;;;;;;;5010504;28;20045;-67
2021/07/01 00:41:14;;;;;;;1.58;0.90;;;;;;;;;;5017907;28;20029;-68
2021/07/01 00:43:40;;;;;;;1.45;0.80;;;;;;;;;;5009476;28;20361;-67
2021/07/01 00:46:05;;;;;;;1.05;1.05;;;;;;;;;;5012679;28;20472;-68
2021/07/01 00:48:31;;;;;;;1.95;1.17;;;;;;;;;;5010349;28;20381;-68
2021/07/01 00:50:56;;;;;;;0.80;0.80;;;;;;;;;;5010317;28;20500;-68
2021/07/01 00:53:21;;;;;;;0.75;0.75;;;;;;;;;;5014454;28;20041;-67
2021/07/01 00:55:47;;;;;;;1.42;0.88;;;;;;;;;;5011868;28;20519;-68
2021/07/01 00:58:12;;;;;;;1.73;1.00;;;;;;;;;;5012289;28;20029;-67
2021/07/01 01:01:01;;;;;;;1.20;0.80;;;;;;;;;;5010636;28;20033;-67
2021/07/01 01:03:28;;;;;;;1.48;0.80;;;;;;;;;;5009767;28;20480;-67
2021/07/01 01:05:53;;;;;;;0.93;0.93;;;;;;;;;;5010283;28;20037;-67
2021/07/01 01:08:18;;;;;;;1.13;1.05;;;;;;;;;;5013840;28;20487;-67
2021/07/01 01:10:43;;;;;;;2.15;1.17;;;;;;;;;;5013662;28;20372;-67
2021/07/01 01:13:10;;;;;;;1.13;0.82;;;;;;;;;;5011612;28;20048;-67
2021/07/01 01:15:35;;;;;;;1.60;1.00;;;;;;;;;;5010186;28;20033;-68
2021/07/01 01:18:00;;;;;;;1.33;1.20;;;;;;;;;;5010122;28;20124;-67
2021/07/01 01:20:26;;;;;;;2.00;0.93;;;;;;;;;;5010163;28;20077;-68
2021/07/01 01:22:51;;;;;;;0.90;0.90;;;;;;;;;;4991677;28;20025;-68
2021/07/01 01:25:16;;;;;;;1.83;1.20;;;;;;;;;;5018103;28;20493;-67
2021/07/01 01:27:41;;;;;;;1.90;1.00;;;;;;;;;;5008722;28;20038;-67
2021/07/01 01:30:07;;;;;;;3.75;1.00;;;;;;;;;;5009995;28;20546;-67
2021/07/01 01:32:32;;;;;;;1.20;1.10;;;;;;;;;;5009170;28;20411;-67
2021/07/01 01:34:58;;;;;;;1.35;1.20;;;;;;;;;;5009660;28;20384;-67
2021/07/01 01:37:23;;;;;;;1.40;1.30;;;;;;;;;;4994146;28;20030;-68
2021/07/01 01:39:49;;;;;;;1.25;0.88;;;;;;;;;;5015368;28;20030;-67
2021/07/01 01:42:14;;;;;;;1.00;0.80;;;;;;;;;;5009013;28;20033;-67
2021/07/01 01:44:39;;;;;;;0.93;0.93;;;;;;;;;;5009239;28;20503;-68
2021/07/01 01:47:17;;;;;;;1.92;1.20;;;;;;;;;;5009307;28;20032;-67
2021/07/01 01:49:46;;;;;;;1.30;1.15;;;;;;;;;;5009241;28;20022;-67
2021/07/01 01:52:11;;;;;;;1.00;0.90;;;;;;;;;;5010936;28;20653;-67
2021/07/01 01:54:37;;;;;;;1.08;1.08;;;;;;;;;;5013772;28;20037;-67
2021/07/01 01:57:02;;;;;;;1.60;0.90;;;;;;;;;;5009093;28;20030;-68
2021/07/01 01:59:27;;;;;;;1.05;0.90;;;;;;;;;;5009120;28;20120;-67
2021/07/01 02:01:52;;;;;;;1.10;1.00;;;;;;;;;;5009225;28;20048;-68
2021/07/01 02:04:18;;;;;;;2.17;0.85;;;;;;;;;;5010659;28;20064;-68
2021/07/01 02:06:43;;;;;;;0.88;0.70;;;;;;;;;;5009286;28;20046;-67
2021/07/01 02:09:08;;;;;;;0.90;0.70;;;;;;;;;;5013996;28;20435;-67
2021/07/01 02:11:33;;;;;;;0.80;0.80;;;;;;;;;;5008759;28;20491;-68
2021/07/01 02:13:59;;;;;;;1.45;0.90;;;;;;;;;;5008656;28;20471;-68
2021/07/01 02:16:24;;;;;;;0.65;0.65;;;;;;;;;;5011274;28;20464;-67
2021/07/01 02:18:51;;;;;;;0.70;0.70;;;;;;;;;;4991460;28;20096;-67
2021/07/01 02:21:16;;;;;;;1.00;0.70;;;;;;;;;;5008781;28;20041;-67
2021/07/01 02:23:41;;;;;;;0.98;0.77;;;;;;;;;;5012391;28;20072;-67
2021/07/01 02:26:07;;;;;;;1.77;0.70;;;;;;;;;;5008954;28;20065;-67
2021/07/01 02:28:32;;;;;;;0.60;0.60;;;;;;;;;;4993102;28;20116;-67
2021/07/01 02:30:57;;;;;;;3.65;0.93;;;;;;;;;;5008783;28;20018;-66
2021/07/01 02:33:23;;;;;;;1.80;0.90;;;;;;;;;;5008298;28;20048;-67
2021/07/01 02:35:48;;;;;;;0.80;0.80;;;;;;;;;;4991077;28;20034;-66
2021/07/01 02:38:13;;;;;;;1.42;1.05;;;;;;;;;;5008560;28;20030;-66
2021/07/01 02:40:38;;;;;;;1.30;1.20;;;;;;;;;;5012147;28;20040;-67
2021/07/01 02:43:04;;;;;;;1.13;1.10;;;;;;;;;;5009214;28;20476;-66
2021/07/01 02:45:29;;;;;;;0.88;0.88;;;;;;;;;;4990623;28;20145;-67
2021/07/01 02:47:54;;;;;;;1.23;0.95;;;;;;;;;;5008481;28;20522;-66
2021/07/01 02:50:20;;;;;;;1.85;1.27;;;;;;;;;;5008459;28;20044;-66
2021/07/01 02:52:45;;;;;;;1.20;1.10;;;;;;;;;;4990504;28;20088;-66
2021/07/01 02:55:10;;;;;;;1.33;0.85;;;;;;;;;;5017009;28;20025;-67
2021/07/01 02:57:36;;;;;;;1.10;1.00;;;;;;;;;;5010534;28;20068;-66
2021/07/01 03:00:02;;;;;;;1.08;1.08;;;;;;;;;;5028173;28;20033;-67
2021/07/01 03:02:27;;;;;;;1.20;1.20;;;;;;;;;;5027847;28;20022;-67
2021/07/01 03:04:53;;;;;;;1.38;1.10;;;;;;;;;;5026714;28;20083;-67
2021/07/01 03:07:18;;;;;;;1.48;1.33;;;;;;;;;;5033769;28;20032;-67
2021/07/01 03:09:43;;;;;;;1.50;1.40;;;;;;;;;;5023769;28;20049;-68
2021/07/01 03:12:09;;;;;;;1.17;1.13;;;;;;;;;;5012095;28;20141;-68
2021/07/01 03:14:34;;;;;;;1.80;1.35;;;;;;;;;;4995298;28;20045;-68
2021/07/01 03:16:59;;;;;;;1.20;1.10;;;;;;;;;;5013084;28;20022;-68
2021/07/01 03:19:24;;;;;;;1.60;1.50;;;;;;;;;;5014770;28;20033;-69
2021/07/01 03:21:50;;;;;;;1.63;1.52;;;;;;;;;;4995018;28;20037;-68
2021/07/01 03:24:15;;;;;;;1.60;1.50;;;;;;;;;;5017740;28;20036;-69
2021/07/01 03:26:40;;;;;;;1.58;1.48;;;;;;;;;;5015940;28;20037;-67
2021/07/01 03:29:07;;;;;;;1.70;1.60;;;;;;;;;;5011928;28;20053;-68
2021/07/01 03:31:33;;;;;;;2.08;1.70;;;;;;;;;;5013978;28;20237;-67
2021/07/01 03:33:58;;;;;;;1.45;1.35;;;;;;;;;;5011531;28;20108;-68
2021/07/01 03:36:23;;;;;;;1.90;1.67;;;;;;;;;;5012038;28;20044;-68
2021/07/01 03:38:48;;;;;;;3.15;2.67;;;;;;;;;;4995822;28;20048;-68
2021/07/01 03:41:13;;;;;;;1.73;1.63;;;;;;;;;;5015490;28;20046;-68
2021/07/01 03:43:46;;;;;;;6.90;1.80;;;;;;;;;;5031276;28;20025;-68
2021/07/01 03:46:11;;;;;;;;;;;;;;;;;;5034187;28;20029;-68
2021/07/01 03:48:36;;;;;;;1.40;1.30;;;;;;;;;;5013669;28;19909;-68
2021/07/01 03:51:03;;;;;;;1.80;1.45;;;;;;;;;;5031548;28;20124;-68
2021/07/01 03:53:28;;;;;;;1.88;1.58;;;;;;;;;;5031106;28;20514;-67
2021/07/01 03:55:53;;;;;;;1.83;1.70;;;;;;;;;;5013266;28;20026;-68
2021/07/01 03:58:18;;;;;;;1.83;1.73;;;;;;;;;;5013556;28;20079;-71
2021/07/01 04:00:44;;;;;;;1.80;1.70;;;;;;;;;;5011734;28;20057;-67
2021/07/01 04:03:09;;;;;;;1.42;1.33;;;;;;;;;;5011168;28;20034;-67
2021/07/01 04:05:34;;;;;;;2.88;1.50;;;;;;;;;;4993851;28;20041;-68
2021/07/01 04:07:59;;;;;;;1.90;1.80;;;;;;;;;;5010148;28;20034;-68
2021/07/01 04:10:25;;;;;;;1.70;1.60;;;;;;;;;;5021190;28;20045;-68
2021/07/01 04:12:50;;;;;;;2.28;1.73;;;;;;;;;;5010554;28;20050;-68
2021/07/01 04:15:15;;;;;;;2.05;1.88;;;;;;;;;;5011184;28;20022;-68
2021/07/01 04:17:40;;;;;;;2.03;1.92;;;;;;;;;;4992702;28;20038;-68
2021/07/01 04:20:06;;;;;;;1.63;1.52;;;;;;;;;;5011287;28;20038;-67
2021/07/01 04:22:31;;;;;;;2.22;2.03;;;;;;;;;;5012366;28;20018;-68
2021/07/01 04:24:57;;;;;;;1.95;1.80;;;;;;;;;;5017849;28;20395;-67
2021/07/01 04:27:22;;;;;;;2.10;1.90;;;;;;;;;;5019107;28;20026;-68
2021/07/01 04:29:47;;;;;;;2.35;1.90;;;;;;;;;;5009800;28;20040;-67
2021/07/01 04:32:12;;;;;;;2.85;1.98;;;;;;;;;;5010321;28;20038;-68
2021/07/01 04:34:38;;;;;;;3.42;1.88;;;;;;;;;;5012808;28;20041;-68
2021/07/01 04:37:03;;;;;;;2.00;1.90;;;;;;;;;;5010974;28;20041;-68
2021/07/01 04:39:29;;;;;;;2.42;2.22;;;;;;;;;;5015538;28;20037;-68
2021/07/01 04:41:54;;;;;;;1.80;1.70;;;;;;;;;;5012092;28;20038;-67
2021/07/01 04:44:19;;;;;;;2.22;2.08;;;;;;;;;;5010264;28;20030;-68
2021/07/01 04:46:45;;;;;;;2.25;1.63;;;;;;;;;;5010865;28;20076;-68
2021/07/01 04:49:10;;;;;;;1.90;1.80;;;;;;;;;;4994983;28;20014;-68
2021/07/01 04:51:35;;;;;;;1.75;1.65;;;;;;;;;;5010460;28;20403;-69
2021/07/01 04:54:00;;;;;;;2.30;2.20;;;;;;;;;;4992722;28;20033;-68
2021/07/01 04:56:25;;;;;;;1.90;1.80;;;;;;;;;;5006275;28;20386;-68
2021/07/01 04:59:07;;;;;;;;;;;;;;;;;;5030343;28;20026;-67
2021/07/01 05:01:33;;;;;;;1.90;1.50;;;;;;;;;;5031958;28;19959;-67
2021/07/01 05:03:58;;;;;;;1.70;1.60;;;;;;;;;;5029852;28;20080;-68
2021/07/01 05:06:23;;;;;;;4.03;1.80;;;;;;;;;;5029864;28;20068;-68
2021/07/01 05:08:48;;;;;;;2.47;1.83;;;;;;;;;;5029812;28;20041;-67
2021/07/01 05:11:13;;;;;;;1.70;1.60;;;;;;;;;;5017108;28;20518;-68
2021/07/01 05:13:39;;;;;;;1.90;1.73;;;;;;;;;;5011309;28;20038;-68
2021/07/01 05:16:04;;;;;;;1.65;1.42;;;;;;;;;;4992107;28;20037;-68
2021/07/01 05:18:29;;;;;;;3.83;1.80;;;;;;;;;;5009705;28;20099;-68
2021/07/01 05:20:54;;;;;;;1.75;1.65;;;;;;;;;;5009605;28;20084;-68
2021/07/01 05:23:19;;;;;;;3.60;1.70;;;;;;;;;;4991113;28;20129;-68
2021/07/01 05:25:45;;;;;;;1.70;1.60;;;;;;;;;;5014804;28;20273;-68
2021/07/01 05:28:11;;;;;;;2.10;1.90;;;;;;;;;;4993836;28;20379;-68
2021/07/01 05:30:36;;;;;;;1.80;1.63;;;;;;;;;;5009554;28;20030;-68
2021/07/01 05:33:01;;;;;;;2.60;1.52;;;;;;;;;;5009118;28;20582;-68
2021/07/01 05:35:27;;;;;;;2.10;2.00;;;;;;;;;;5009622;28;20046;-67
2021/07/01 05:37:53;;;;;;;2.30;1.60;;;;;;;;;;5009114;28;20021;-67
2021/07/01 05:40:21;;;;;;;2.05;1.85;;;;;;;;;;4998060;28;20080;-68
2021/07/01 05:42:46;;;;;;;2.55;1.77;;;;;;;;;;5008949;28;20036;-68
2021/07/01 05:45:12;;;;;;;2.03;1.92;;;;;;;;;;4991401;28;20034;-68
2021/07/01 05:47:38;;;;;;;2.03;1.85;;;;;;;;;;5009127;28;20088;-67
2021/07/01 05:50:04;;;;;;;1.90;1.70;;;;;;;;;;5009169;28;20026;-68
2021/07/01 05:52:31;;;;;;;3.90;1.77;;;;;;;;;;4992853;28;20092;-68
2021/07/01 05:54:57;;;;;;;1.80;1.70;;;;;;;;;;5012492;28;20034;-68
2021/07/01 05:57:23;;;;;;;1.42;1.40;;;;;;;;;;4990837;28;20038;-67
2021/07/01 05:59:49;;;;;;;2.00;1.70;;;;;;;;;;4991432;28;20041;-68
2021/07/01 06:02:14;;;;;;;1.77;1.55;;;;;;;;;;5008733;28;20109;-68
2021/07/01 06:04:39;;;;;;;2.28;1.60;;;;;;;;;;5011405;28;20492;-68
2021/07/01 06:07:05;;;;;;;2.03;1.73;;;;;;;;;;5009239;28;20045;-68
2021/07/01 06:09:30;;;;;;;1.67;1.58;;;;;;;;;;5010173;28;20038;-68
2021/07/01 06:11:59;;;;;;;3.47;1.60;;;;;;;;;;5010455;28;20046;-68
2021/07/01 06:14:25;;;;;;;1.90;1.80;;;;;;;;;;5008038;28;20488;-68
2021/07/01 06:16:51;;;;;;;2.08;1.88;;;;;;;;;;5008967;28;20029;-68
2021/07/01 06:19:17;;;;;;;2.00;1.80;;;;;;;;;;4993077;28;20502;-68
2021/07/01 06:21:42;;;;;;;1.90;1.77;;;;;;;;;;5008628;28;20100;-67
2021/07/01 06:24:08;;;;;;;1.50;1.40;;;;;;;;;;4990738;28;20396;-67
2021/07/01 06:26:35;;;;;;;2.08;1.98;;;;;;;;;;5008180;28;20514;-68
2021/07/01 06:29:01;;;;;;;2.47;1.98;;;;;;;;;;5028053;28;20042;-68
2021/07/01 06:31:26;;;;;;;1.90;1.80;;;;;;;;;;5030266;28;20351;-69
2021/07/01 06:33:51;;;;;;;2.00;1.90;;;;;;;;;;5010410;28;20599;-68
2021/07/01 06:36:19;;;;;;;2.20;2.00;;;;;;;;;;5028600;28;20533;-69
2021/07/01 06:38:50;;;;;;;2.20;2.00;;;;;;;;;;5028319;28;20120;-68
2021/07/01 06:41:17;;;;;;;2.00;1.80;;;;;;;;;;5014895;28;20693;-68
2021/07/01 06:43:44;;;;;;;2.20;2.10;;;;;;;;;;5008130;28;20029;-67
2021/07/01 06:46:11;;;;;;;2.95;2.10;;;;;;;;;;5011037;28;20018;-68
2021/07/01 06:48:37;;;;;;;1.90;1.80;;;;;;;;;;4991033;28;20084;-67
2021/07/01 06:51:03;;;;;;;1.58;1.48;;;;;;;;;;5008626;28;20030;-68
2021/07/01 06:53:28;;;;;;;3.97;1.92;;;;;;;;;;5007957;28;20542;-67
2021/07/01 06:55:54;;;;;;;1.50;1.40;;;;;;;;;;5009849;28;20507;-67
2021/07/01 06:58:19;;;;;;;1.77;1.63;;;;;;;;;;5010912;28;20025;-68
2021/07/01 07:00:45;;;;;;;1.75;1.55;;;;;;;;;;5008674;28;20041;-68
2021/07/01 07:03:18;;;;;;;1.50;1.40;;;;;;;;;;5008022;28;20034;-67
2021/07/01 07:05:50;;;;;;;2.08;1.77;;;;;;;;;;5007209;28;20083;-67
2021/07/01 07:08:16;;;;;;;1.88;1.50;;;;;;;;;;5008340;28;20033;-68
2021/07/01 07:10:43;;;;;;;2.60;1.48;;;;;;;;;;5016946;28;20021;-65
2021/07/01 07:13:09;;;;;;;1.65;1.55;;;;;;;;;;5009818;28;20033;-68
2021/07/01 07:15:34;;;;;;;1.73;1.35;;;;;;;;;;5008110;28;20484;-68
2021/07/01 07:18:09;;;;;;;1.50;1.40;;;;;;;;;;5007957;28;20038;-69
2021/07/01 07:20:37;;;;;;;6.25;1.50;;;;;;;;;;4990486;28;20026;-68
2021/07/01 07:23:04;;;;;;;2.15;1.25;;;;;;;;;;5007867;28;20030;-69
2021/07/01 07:25:30;;;;;;;1.30;1.20;;;;;;;;;;5010489;28;20107;-68
2021/07/01 07:28:05;;;;;;;1.27;1.17;;;;;;;;;;5008071;28;20262;-68
2021/07/01 07:30:31;;;;;;;1.05;0.95;;;;;;;;;;5007870;28;20034;-68
2021/07/01 07:32:58;;;;;;;1.25;1.15;;;;;;;;;;5007285;28;20045;-69
2021/07/01 07:35:24;;;;;;;1.08;0.98;;;;;;;;;;5007972;28;20227;-68
2021/07/01 07:37:49;;;;;;;1.58;1.00;;;;;;;;;;5007654;28;20460;-68
2021/07/01 07:40:15;;;;;;;0.90;0.77;;;;;;;;;;5013458;28;20029;-68
2021/07/01 07:42:44;;;;;;;0.80;0.80;;;;;;;;;;5009788;28;20487;-68
2021/07/01 07:45:10;;;;;;;2.03;0.88;;;;;;;;;;4989914;28;20046;-69
2021/07/01 07:47:35;;;;;;;0.90;0.73;;;;;;;;;;5007675;28;20051;-70
2021/07/01 07:50:00;;;;;;;1.77;0.90;;;;;;;;;;5007743;28;20026;-68
2021/07/01 07:52:27;;;;;;;0.80;0.70;;;;;;;;;;5010931;28;20315;-68
2021/07/01 07:54:57;;;;;;;1.65;0.90;;;;;;;;;;5011837;28;20261;-68
2021/07/01 07:57:28;;;;;;;1.58;0.77;;;;;;;;;;5017614;28;20026;-68
2021/07/01 07:59:54;;;;;;;1.88;0.75;;;;;;;;;;5011748;28;20076;-68
2021/07/01 08:02:38;;;;;;;0.85;0.80;;;;;;;;;;5011226;28;20931;-68
2021/07/01 08:05:04;;;;;;;1.00;1.00;;;;;;;;;;5011052;28;20061;-68
2021/07/01 08:07:30;;;;;;;1.00;1.00;;;;;;;;;;5013457;28;20049;-68
2021/07/01 08:09:56;;;;;;;1.00;0.90;;;;;;;;;;5011638;28;20126;-68
2021/07/01 08:12:21;;;;;;;1.40;0.90;;;;;;;;;;5016982;28;20534;-68
2021/07/01 08:14:47;;;;;;;0.80;0.80;;;;;;;;;;5010990;28;20549;-68
2021/07/01 08:17:13;;;;;;;2.17;1.00;;;;;;;;;;5011030;28;20365;-68
2021/07/01 08:19:39;;;;;;;2.25;0.80;;;;;;;;;;5011781;28;20021;-68
2021/07/01 08:22:04;;;;;;;1.45;0.75;;;;;;;;;;5010928;28;20042;-68
2021/07/01 08:24:29;;;;;;;1.13;1.02;;;;;;;;;;5010674;28;20068;-68
2021/07/01 08:26:55;;;;;;;3.80;0.90;;;;;;;;;;5016892;28;20630;-68
2021/07/01 08:29:21;;;;;;;2.15;0.95;;;;;;;;;;5010698;28;20030;-68
2021/07/01 08:31:47;;;;;;;3.17;0.88;;;;;;;;;;5010401;28;20045;-68
2021/07/01 08:34:13;;;;;;;2.75;1.13;;;;;;;;;;5012077;28;20496;-68
2021/07/01 08:36:41;;;;;;;1.73;1.00;;;;;;;;;;4992830;28;20088;-68
2021/07/01 08:39:07;;;;;;;4.28;1.00;;;;;;;;;;4992787;28;20041;-68
2021/07/01 08:41:33;;;;;;;1.23;0.98;;;;;;;;;;5016640;28;20041;-69
2021/07/01 08:44:00;;;;;;;1.25;1.10;;;;;;;;;;5009666;28;20080;-68
2021/07/01 08:46:25;;;;;;;1.00;1.00;;;;;;;;;;4994560;28;20392;-67
2021/07/01 08:48:53;;;;;;;1.23;0.90;;;;;;;;;;5010351;28;20026;-68
2021/07/01 08:51:19;;;;;;;2.80;1.27;;;;;;;;;;4992392;28;20038;-68
2021/07/01 08:54:03;;;;;;;1.45;1.13;;;;;;;;;;5009529;28;20484;-69
2021/07/01 08:56:34;;;;;;;1.75;1.27;;;;;;;;;;5015106;28;20425;-69
2021/07/01 08:59:03;;;;;;;1.95;1.25;;;;;;;;;;5009916;28;20025;-68
2021/07/01 09:01:29;;;;;;;1.73;1.40;;;;;;;;;;5012335;28;20022;-69
2021/07/01 09:03:57;;;;;;;1.33;1.05;;;;;;;;;;5009250;28;20032;-68
2021/07/01 09:06:24;;;;;;;1.42;1.25;;;;;;;;;;5009924;28;20476;-68
2021/07/01 09:08:51;;;;;;;1.52;1.42;;;;;;;;;;5010018;28;20443;-68
2021/07/01 09:11:17;;;;;;;1.48;1.38;;;;;;;;;;5014847;28;20026;-68
2021/07/01 09:13:45;;;;;;;1.30;1.20;;;;;;;;;;5011182;28;20092;-69
2021/07/01 09:16:12;;;;;;;1.60;1.50;;;;;;;;;;5010365;28;20034;-69
2021/07/01 09:18:39;;;;;;;2.05;1.50;;;;;;;;;;5009737;28;20121;-69
2021/07/01 09:21:05;;;;;;;2.95;1.45;;;;;;;;;;5009733;28;20038;-69
2021/07/01 09:23:30;;;;;;;1.70;1.60;;;;;;;;;;5009449;28;20029;-69
2021/07/01 09:25:59;;;;;;;2.20;1.77;;;;;;;;;;5013881;28;20356;-68
2021/07/01 09:28:25;;;;;;;1.80;1.70;;;;;;;;;;5011643;28;20738;-69
2021/07/01 09:30:50;;;;;;;2.58;1.35;;;;;;;;;;5009991;28;20041;-68
2021/07/01 09:33:16;;;;;;;2.55;1.70;;;;;;;;;;5009077;28;20389;-68
2021/07/01 09:35:43;;;;;;;2.53;1.63;;;;;;;;;;4992315;28;20112;-69
2021/07/01 09:38:11;;;;;;;1.50;1.40;;;;;;;;;;5009500;28;20069;-68
2021/07/01 09:40:37;;;;;;;1.50;1.40;;;;;;;;;;5014015;28;20029;-69
2021/07/01 09:43:04;;;;;;;1.50;1.40;;;;;;;;;;5009888;28;20046;-69
2021/07/01 09:45:31;;;;;;;1.45;1.40;;;;;;;;;;4992164;28;20487;-69
2021/07/01 09:48:09;;;;;;;1.42;1.33;;;;;;;;;;4991844;28;20262;-69
2021/07/01 09:50:50;;;;;;;1.38;1.27;;;;;;;;;;5009261;28;20037;-69
2021/07/01 09:53:29;;;;;;;1.33;1.33;;;;;;;;;;5008848;28;20038;-70
2021/07/01 09:55:54;;;;;;;1.33;1.23;;;;;;;;;;5011988;28;20017;-69
2021/07/01 09:58:20;;;;;;;1.60;1.50;;;;;;;;;;5011206;28;20487;-70
2021/07/01 10:00:49;;;;;;;1.73;1.40;;;;;;;;;;5009464;28;20050;-69
2021/07/01 10:03:15;;;;;;;1.63;1.50;;;;;;;;;;5008814;28;20030;-69
2021/07/01 10:05:40;;;;;;;1.40;1.30;;;;;;;;;;5009005;28;20046;-69
2021/07/01 10:08:05;;;;;;;1.60;1.50;;;;;;;;;;5009222;28;20080;-68
2021/07/01 10:10:51;;;;;;;1.73;1.50;;;;;;;;;;5011495;28;20699;-70
2021/07/01 10:13:18;;;;;;;1.52;1.42;;;;;;;;;;5019910;28;20644;-69
2021/07/01 10:15:43;;;;;;;2.53;1.50;;;;;;;;;;5027921;28;20120;-69
2021/07/01 10:18:12;;;;;;;1.67;1.58;;;;;;;;;;5028443;28;20451;-69
2021/07/01 10:20:43;;;;;;;1.90;1.42;;;;;;;;;;5028356;28;20486;-69
2021/07/01 10:23:19;;;;;;;2.60;1.70;;;;;;;;;;5027709;28;20033;-69
2021/07/01 10:25:44;;;;;;;2.33;2.00;;;;;;;;;;5027990;28;20028;-69
2021/07/01 10:28:11;;;;;;;13.18;3.35;;;;;;;;;;5010398;28;20026;-69
2021/07/01 10:30:36;;;;;;;4.00;3.42;;;;;;;;;;4990841;28;20447;-69
2021/07/01 10:33:02;;;;;;;5.60;3.42;;;;;;;;;;5008329;28;20042;-69
2021/07/01 10:35:31;;;;;;;4.70;3.90;;;;;;;;;;5008542;28;20076;-70
2021/07/01 10:37:58;;;;;;;3.65;3.35;;;;;;;;;;5008308;28;20076;-70
2021/07/01 10:40:24;;;;;;;4.13;3.72;;;;;;;;;;5010751;28;20022;-70
2021/07/01 10:42:50;;;;;;;5.18;4.22;;;;;;;;;;4991897;28;20515;-73
2021/07/01 10:45:16;;;;;;;2.85;2.65;;;;;;;;;;5008620;28;20492;-70
2021/07/01 10:47:41;;;;;;;2.92;2.50;;;;;;;;;;4990702;28;20092;-71
2021/07/01 10:50:29;;;;;;;2.67;2.25;;;;;;;;;;5008273;28;20030;-70
2021/07/01 10:52:54;;;;;;;3.00;2.60;;;;;;;;;;5007761;28;20025;-70
2021/07/01 10:55:20;;;;;;;3.15;2.38;;;;;;;;;;5010314;28;20068;-69
2021/07/01 10:57:47;;;;;;;2.67;2.47;;;;;;;;;;5008813;28;20450;-70
2021/07/01 11:00:12;;;;;;;1.88;1.77;;;;;;;;;;5028042;28;20614;-70
2021/07/01 11:02:44;;;;;;;2.05;1.85;;;;;;;;;;5009741;28;20471;-70
2021/07/01 11:05:10;;;;;;;3.85;1.95;;;;;;;;;;5028134;28;20030;-71
2021/07/01 11:07:42;;;;;;;2.35;2.15;;;;;;;;;;5030039;28;20025;-70
2021/07/01 11:10:08;;;;;;;2.20;2.10;;;;;;;;;;5028044;28;20037;-72
2021/07/01 11:12:40;;;;;;;2.03;1.92;;;;;;;;;;5011988;28;20438;-71
2021/07/01 11:15:06;;;;;;;2.50;1.92;;;;;;;;;;4990617;28;20057;-71
2021/07/01 11:17:32;;;;;;;2.03;1.55;;;;;;;;;;5008059;28;20069;-70
2021/07/01 11:20:10;;;;;;;2.50;2.30;;;;;;;;;;5008544;28;20032;-71
2021/07/01 11:22:42;;;;;;;2.60;2.40;;;;;;;;;;5010281;28;20041;-73
2021/07/01 11:25:19;;;;;;;5.10;2.70;;;;;;;;;;5008196;28;20042;-71
2021/07/01 11:27:44;;;;;;;2.65;2.45;;;;;;;;;;5026112;28;20060;-71
2021/07/01 11:30:20;;;;;;;3.50;2.97;;;;;;;;;;5012005;28;20506;-71
2021/07/01 11:32:45;;;;;;;2.65;2.45;;;;;;;;;;5011391;28;20347;-71
2021/07/01 11:35:21;;;;;;;2.67;2.47;;;;;;;;;;5011876;28;20583;-71
2021/07/01 11:37:46;;;;;;;2.20;2.03;;;;;;;;;;5011697;28;20696;-71
2021/07/01 11:40:20;;;;;;;2.80;2.70;;;;;;;;;;5013893;28;20117;-71
2021/07/01 11:42:46;;;;;;;2.97;2.67;;;;;;;;;;5018612;28;20037;-71
2021/07/01 11:45:11;;;;;;;4.35;2.60;;;;;;;;;;5011402;28;20085;-71
2021/07/01 11:47:37;;;;;;;2.85;2.65;;;;;;;;;;5011553;28;20125;-71
2021/07/01 11:50:04;;;;;;;3.10;2.80;;;;;;;;;;5011609;28;20018;-71
2021/07/01 11:52:31;;;;;;;3.08;2.67;;;;;;;;;;5012335;28;20098;-72
2021/07/01 11:54:57;;;;;;;2.70;2.50;;;;;;;;;;5011342;28;20487;-71
2021/07/01 11:57:22;;;;;;;2.70;2.50;;;;;;;;;;5022914;28;20041;-71
2021/07/01 11:59:48;;;;;;;2.80;2.60;;;;;;;;;;5014205;28;20042;-69
2021/07/01 12:02:13;;;;;;;4.53;2.50;;;;;;;;;;5010711;28;20034;-70
2021/07/01 12:04:39;;;;;;;3.25;2.63;;;;;;;;;;5013224;28;20029;-69
2021/07/01 12:07:24;;;;;;;2.50;2.30;;;;;;;;;;5011048;28;20053;-70
2021/07/01 12:09:50;;;;;;;2.65;2.42;;;;;;;;;;5011226;28;20119;-71
2021/07/01 12:12:15;;;;;;;2.17;2.08;;;;;;;;;;5016925;28;20041;-72
2021/07/01 12:14:42;;;;;;;3.60;2.58;;;;;;;;;;5011007;28;20080;-70
2021/07/01 12:17:07;;;;;;;2.70;2.50;;;;;;;;;;5010377;28;20144;-70
2021/07/01 12:19:48;;;;;;;2.83;2.38;;;;;;;;;;5013616;28;20105;-71
2021/07/01 12:22:32;;;;;;;2.60;2.42;;;;;;;;;;5010471;28;20033;-71
2021/07/01 12:24:57;;;;;;;2.90;2.70;;;;;;;;;;5010810;28;20030;-71
2021/07/01 12:27:29;;;;;;;2.95;2.60;;;;;;;;;;5016330;28;20531;-70
2021/07/01 12:29:54;;;;;;;2.92;1.63;;;;;;;;;;5019236;28;20026;-71
2021/07/01 12:32:24;;;;;;;1.57;1.47;;;;;;;;;;5009006;28;20086;-71
2021/07/01 12:34:49;;;;;;;1.52;1.42;;;;;;;;;;5009465;28;20265;-71
2021/07/01 12:37:14;;;;;;;1.55;1.45;;;;;;;;;;5011418;28;20018;-71
2021/07/01 12:39:40;;;;;;;1.63;1.52;;;;;;;;;;5009653;28;20104;-71
2021/07/01 12:42:05;;;;;;;1.50;1.40;;;;;;;;;;5009010;28;20136;-71
2021/07/01 12:44:31;;;;;;;1.37;1.27;;;;;;;;;;4992571;28;20041;-71
2021/07/01 12:46:58;;;;;;;1.42;1.33;;;;;;;;;;4992793;28;20024;-72
2021/07/01 12:49:26;;;;;;;1.50;1.40;;;;;;;;;;5012404;28;20111;-71
2021/07/01 12:51:56;;;;;;;1.67;1.58;;;;;;;;;;4993140;28;20148;-71
2021/07/01 12:54:27;;;;;;;1.60;1.50;;;;;;;;;;5009988;28;20048;-70
2021/07/01 12:57:02;;;;;;;1.52;1.42;;;;;;;;;;5014748;28;20129;-70
2021/07/01 12:59:27;;;;;;;2.13;1.85;;;;;;;;;;5010184;28;20400;-70
2021/07/01 13:01:53;;;;;;;2.27;1.57;;;;;;;;;;5010233;28;20014;-70
2021/07/01 13:04:25;;;;;;;1.48;1.38;;;;;;;;;;5011370;28;20561;-70
2021/07/01 13:06:51;;;;;;;1.70;1.60;;;;;;;;;;5009763;28;20144;-70
2021/07/01 13:09:28;;;;;;;1.70;1.60;;;;;;;;;;4992145;28;20124;-70
2021/07/01 13:11:54;;;;;;;1.75;1.65;;;;;;;;;;5014001;28;20080;-70
2021/07/01 13:14:22;;;;;;;2.88;1.40;;;;;;;;;;5009254;28;20065;-70
2021/07/01 13:17:00;;;;;;;3.92;1.88;;;;;;;;;;4992063;28;20388;-71
2021/07/01 13:19:25;;;;;;;1.80;1.70;;;;;;;;;;5012016;28;20515;-70
2021/07/01 13:21:53;;;;;;;1.88;1.70;;;;;;;;;;5009949;28;20133;-70
2021/07/01 13:24:18;;;;;;;1.90;1.80;;;;;;;;;;4990844;28;20030;-70
2021/07/01 13:26:45;;;;;;;2.33;1.73;;;;;;;;;;4995463;28;20651;-69
2021/07/01 13:29:10;;;;;;;1.73;1.63;;;;;;;;;;5009588;28;20041;-69
2021/07/01 13:31:35;;;;;;;1.85;1.75;;;;;;;;;;5011732;28;20472;-69
2021/07/01 13:34:07;;;;;;;1.70;1.60;;;;;;;;;;5009210;28;20042;-69
2021/07/01 13:36:32;;;;;;;1.85;1.75;;;;;;;;;;5009691;28;20262;-69
2021/07/01 13:38:57;;;;;;;1.67;1.58;;;;;;;;;;4991940;28;20045;-69
2021/07/01 13:41:26;;;;;;;3.95;2.50;;;;;;;;;;5009379;28;20116;-69
2021/07/01 13:43:52;;;;;;;2.03;1.83;;;;;;;;;;5008760;28;20022;-70
2021/07/01 13:46:19;;;;;;;1.98;1.88;;;;;;;;;;5011517;28;20448;-69
2021/07/01 13:48:45;;;;;;;2.30;2.10;;;;;;;;;;5009365;28;20037;-69
2021/07/01 13:51:10;;;;;;;1.88;1.70;;;;;;;;;;5008020;28;20033;-69
2021/07/01 13:53:36;;;;;;;2.20;2.08;;;;;;;;;;4991300;28;20042;-68
2021/07/01 13:56:03;;;;;;;2.72;2.53;;;;;;;;;;5009208;28;20152;-69
2021/07/01 13:58:29;;;;;;;2.45;1.80;;;;;;;;;;5013657;28;20160;-68
2021/07/01 14:00:59;;;;;;;2.65;2.28;;;;;;;;;;5009169;28;20030;-68
2021/07/01 14:03:34;;;;;;;2.00;1.88;;;;;;;;;;5008712;28;20030;-69
2021/07/01 14:06:03;;;;;;;3.35;1.80;;;;;;;;;;5008900;28;20048;-69
2021/07/01 14:08:29;;;;;;;2.00;1.90;;;;;;;;;;5009179;28;20041;-69
2021/07/01 14:11:02;;;;;;;1.80;1.65;;;;;;;;;;5008990;28;20059;-69
2021/07/01 14:13:28;;;;;;;3.05;1.98;;;;;;;;;;5012167;28;20025;-69
2021/07/01 14:15:54;;;;;;;2.33;2.15;;;;;;;;;;5008509;28;20037;-69
2021/07/01 14:18:19;;;;;;;1.92;1.83;;;;;;;;;;5028855;28;20045;-68
2021/07/01 14:20:45;;;;;;;2.50;2.30;;;;;;;;;;5028592;28;20542;-69
2021/07/01 14:23:19;;;;;;;3.78;2.42;;;;;;;;;;5026246;28;20037;-69
2021/07/01 14:25:45;;;;;;;2.72;2.53;;;;;;;;;;5011846;28;20079;-69
2021/07/01 14:28:11;;;;;;;2.42;2.17;;;;;;;;;;5015519;28;20041;-68
2021/07/01 14:30:38;;;;;;;2.10;2.00;;;;;;;;;;5007810;28;20547;-68
2021/07/01 14:33:21;;;;;;;7.18;3.67;;;;;;;;;;5007220;28;20046;-69
2021/07/01 14:35:56;;;;;;;4.50;3.60;;;;;;;;;;5007679;28;20033;-68
2021/07/01 14:38:26;;;;;;;7.00;6.07;;;;;;;;;;5007665;28;20061;-67
2021/07/01 14:41:01;;;;;;;7.82;5.70;;;;;;;;;;5008610;28;20049;-67
2021/07/01 14:43:40;;;;;;;24.10;9.25;;;;;;;;;;5010868;28;20026;-68